Shenandoah, Georgia
Current Conditions -  °F | °C
As of 5:15 PM on Thursday 18 Dec 2014 (Local Time) from KCCO Reporting Station
Overcast Overcast  
Wind Chill: 53°   Ceiling: 4700
Heat Index: 53°   Visibility: 10mi
Dew Point: 36°   Wind: 0mph
Humidity: 52%   Direction: NA
Pressure: 30.11"   Gusts: NA
Location:  33.4176°N, 84.7076°W
Report Text: KCCO 182215Z AUTO 00000KT 10SM BKN047 OVC120 12/02 A3011 RMK AO2 T01170021
Loading
Personal Weather Stations






























Interactive Weather Map New forecast layout! Learn more

10-Day Weather Forecast

Advertisements
Track Severe Weather on mobile